Chaplin, CT (06235)

2:14 AM EST on January 30, 2015 (GMT -0500)
KCTEASTF2 | Change Station
CLOSE
Current Station
Personal Weather Station
Location: Eastford, CT
Elevation: 500 ft
Nearby Weather Stations
Active Advisory: Winter Weather Advisory

Elev 500 ft 41.84 °N, 72.10 °W | Updated 1 minute ago

Overcast
Overcast
28.3 °F
Feels Like 28 °F
N
0.0
Wind Variable Wind from South
Gusts 0.0 mph

Today
High -- | Low -- °F
--% Chance of Precip.
Yesterday
High -- | Low -- °F
Precip. -- in
7:03 AM 5:00 PM
Waxing Gibbous, 80% visible
Pressure 29.96 in
Visibility 4.0 miles
Clouds Overcast 1200 ft
Windchill 28 °F
Dew Point 26 °F
Humidity 93%
Rainfall 0.00 in
Snow Depth Not available.
UV 0 out of 12
Pollen .10 out of 12
Air Quality Not available.
Flu Activity Not available.
METAR KIJD 300652Z AUTO 00000KT 4SM -SN OVC012 M02/M04 A2995 RMK AO2 SNB14E20B41 SLP144 P0000 T10171044

More Conditions Fewer Conditions

Pressure 29.96 in
Visibility 4.0 miles
Clouds Overcast 1200 ft
Windchill 28 °F
Dew Point 26 °F
Humidity 93%
Rainfall 0.00 in
Snow Depth Not available.
UV 0 out of 12
Pollen .10 out of 12
Air Quality Not available.
Flu Activity Not available.
METAR KIJD 300652Z AUTO 00000KT 4SM -SN OVC012 M02/M04 A2995 RMK AO2 SNB14E20B41 SLP144 P0000 T10171044

More Conditions Fewer Conditions

10-Day Weather Forecast

Almanac

Astronomy

Jan. 30, 2015 Rise Set
Actual Time
Civil Twilight
Nautical Twilight
Astronomical Twilight
Moon
Length of Visible Light
Length of Day
Tomorrow will be .
, % of the Moon is Illuminated

Today's Extremes

State Highs State Lows

Community

WunderPhotos

Upload Photos

1,791,725 photos uploaded!

WunderBlogs® & News

Nearby

Air Quality

  Air Quality AQ Index Pollutant
Not available.

Snow Depth

Station Depth Elevation

Earthquake Activity

City Distance Mag. Time & Date
Minimum magnitude displayed is 2.5.

Coastal Water Temperatures

Place Temperature

Nearby Weather Stations